createdAt,value
2018-08-31T00:02:07.904Z,53.59
2018-08-31T00:04:47.787Z,53.51
2018-08-31T00:07:32.028Z,53.63
2018-08-31T00:12:41.494Z,54.07
2018-08-31T00:15:10.392Z,54.53
2018-08-31T00:17:40.244Z,54.92
2018-08-31T00:20:10.166Z,54.89
2018-08-31T00:22:38.755Z,54.32
2018-08-31T00:25:19.699Z,54.44
2018-08-31T00:27:59.387Z,54.57
2018-08-31T00:30:39.315Z,54.83
2018-08-31T00:33:19.127Z,54.70
2018-08-31T00:35:58.530Z,55.40
2018-08-31T00:40:52.100Z,54.98
2018-08-31T00:43:43.992Z,54.94
2018-08-31T00:46:12.579Z,55.02
2018-08-31T00:48:41.143Z,54.96
2018-08-31T00:51:09.759Z,54.81
2018-08-31T00:53:38.330Z,54.83
2018-08-31T00:56:06.898Z,54.35
2018-08-31T00:58:35.737Z,54.16
2018-08-31T01:01:04.833Z,54.04
2018-08-31T01:03:33.912Z,53.50
2018-08-31T01:06:03.042Z,53.44
2018-08-31T01:08:31.607Z,53.53
2018-08-31T01:11:00.184Z,53.80
2018-08-31T01:13:28.859Z,53.37
2018-08-31T01:15:57.430Z,53.80
2018-08-31T01:18:26.155Z,54.10
2018-08-31T01:20:54.991Z,53.84
2018-08-31T01:23:23.579Z,54.10
2018-08-31T01:25:52.131Z,53.93
2018-08-31T01:28:20.744Z,53.62
2018-08-31T01:30:49.371Z,53.41
2018-08-31T01:33:17.948Z,53.24
2018-08-31T01:35:46.900Z,53.00
2018-08-31T01:38:15.448Z,53.21
2018-08-31T01:40:44.024Z,52.86
2018-08-31T01:43:12.641Z,53.28
2018-08-31T01:45:41.683Z,52.82
2018-08-31T01:48:10.253Z,52.55
2018-08-31T01:50:42.936Z,52.28
2018-08-31T01:53:11.488Z,52.35
2018-08-31T01:55:40.055Z,52.20
2018-08-31T01:58:08.875Z,51.88
2018-08-31T02:00:37.443Z,52.03
2018-08-31T02:03:06.243Z,51.82
2018-08-31T02:05:35.257Z,51.81
2018-08-31T02:08:03.814Z,51.67
2018-08-31T02:10:32.403Z,51.49
2018-08-31T02:13:01.259Z,51.12
2018-08-31T02:15:29.809Z,50.84
2018-08-31T02:17:58.355Z,50.80
2018-08-31T02:20:27.371Z,51.02
2018-08-31T02:22:55.934Z,51.19
2018-08-31T02:25:24.502Z,51.32
2018-08-31T02:27:53.100Z,51.85
2018-08-31T02:30:21.832Z,51.68
2018-08-31T02:32:50.515Z,51.92
2018-08-31T02:35:19.205Z,51.80
2018-08-31T02:37:47.767Z,51.83
2018-08-31T02:40:16.324Z,51.95
2018-08-31T02:42:44.944Z,52.34
2018-08-31T02:45:13.504Z,52.45
2018-08-31T02:47:42.099Z,52.63
2018-08-31T02:50:10.788Z,52.18
2018-08-31T02:52:39.487Z,52.20
2018-08-31T02:55:08.066Z,52.31
2018-08-31T02:57:36.759Z,52.63
2018-08-31T03:00:05.379Z,53.01
2018-08-31T03:02:33.943Z,52.93
2018-08-31T03:05:02.540Z,52.68
2018-08-31T03:07:31.104Z,53.02
2018-08-31T03:09:59.779Z,53.01
2018-08-31T03:12:28.376Z,53.17
2018-08-31T03:14:57.071Z,52.70
2018-08-31T03:17:25.655Z,52.39
2018-08-31T03:19:54.343Z,52.80
2018-08-31T03:22:22.935Z,51.91
2018-08-31T03:24:51.509Z,51.78
2018-08-31T03:27:20.139Z,51.70
2018-08-31T03:29:48.695Z,51.62
2018-08-31T03:32:17.271Z,51.13
2018-08-31T03:34:46.063Z,51.17
2018-08-31T03:37:14.712Z,51.12
2018-08-31T03:39:43.266Z,51.03
2018-08-31T03:42:11.955Z,50.97
2018-08-31T03:44:40.532Z,51.11
2018-08-31T03:47:09.123Z,51.35
2018-08-31T03:49:37.760Z,50.92
2018-08-31T03:52:06.439Z,51.05
2018-08-31T03:54:35.123Z,50.26
2018-08-31T03:57:03.791Z,50.47
2018-08-31T03:59:32.419Z,50.30
2018-08-31T04:02:00.999Z,50.29
2018-08-31T04:04:29.723Z,50.63
2018-08-31T04:06:58.283Z,50.76
2018-08-31T04:09:27.043Z,50.77
2018-08-31T04:11:55.926Z,51.12
2018-08-31T04:14:24.484Z,51.36
2018-08-31T04:16:53.052Z,51.34
2018-08-31T04:19:21.638Z,51.27
2018-08-31T04:21:50.228Z,51.21
2018-08-31T04:24:18.932Z,50.88
2018-08-31T04:26:47.950Z,50.32
2018-08-31T04:29:16.515Z,50.63
2018-08-31T04:31:45.087Z,50.51
2018-08-31T04:34:14.369Z,51.00
2018-08-31T04:36:43.592Z,50.83
2018-08-31T04:39:13.545Z,51.06
2018-08-31T04:41:43.539Z,51.39
2018-08-31T04:44:12.108Z,51.17
2018-08-31T04:46:41.079Z,50.11
2018-08-31T04:49:09.662Z,49.80
2018-08-31T04:51:38.211Z,49.49
2018-08-31T04:54:07.369Z,49.51
2018-08-31T04:56:35.928Z,49.62
2018-08-31T04:59:04.516Z,49.28
2018-08-31T05:01:33.120Z,48.39
2018-08-31T05:04:01.748Z,48.63
2018-08-31T05:06:30.335Z,48.62
2018-08-31T05:08:59.037Z,48.98
2018-08-31T05:11:27.604Z,48.69
2018-08-31T05:13:56.160Z,48.40
2018-08-31T05:16:24.999Z,48.23
2018-08-31T05:18:53.567Z,48.30
2018-08-31T05:21:22.143Z,48.13
2018-08-31T05:23:50.812Z,48.03
2018-08-31T05:26:19.368Z,48.19
2018-08-31T05:28:47.976Z,47.86
2018-08-31T05:31:16.559Z,48.65
2018-08-31T05:33:46.111Z,48.80
2018-08-31T05:36:14.677Z,48.61
2018-08-31T05:38:43.343Z,48.47
2018-08-31T05:41:11.929Z,48.64
2018-08-31T05:43:40.482Z,48.22
2018-08-31T05:46:09.083Z,47.73
2018-08-31T05:48:37.647Z,48.28
2018-08-31T05:51:06.569Z,47.64
2018-08-31T05:53:35.368Z,47.92
2018-08-31T05:56:03.899Z,48.18
2018-08-31T05:58:32.451Z,47.74
2018-08-31T06:01:01.060Z,48.05
2018-08-31T06:03:29.623Z,47.82
2018-08-31T06:05:58.187Z,47.79
2018-08-31T06:08:26.779Z,48.06
2018-08-31T06:10:55.335Z,47.80
2018-08-31T06:13:23.955Z,48.41
2018-08-31T06:15:52.619Z,48.36
2018-08-31T06:18:21.193Z,48.50
2018-08-31T06:20:49.770Z,48.98
2018-08-31T06:23:18.387Z,48.97
2018-08-31T06:25:46.948Z,49.05
2018-08-31T06:28:15.495Z,49.33
2018-08-31T06:30:44.207Z,49.83
2018-08-31T06:33:12.771Z,50.45
2018-08-31T06:35:41.330Z,50.43
2018-08-31T06:38:10.267Z,50.63
2018-08-31T06:40:38.920Z,50.41
2018-08-31T06:43:07.448Z,50.22
2018-08-31T06:45:36.107Z,49.82
2018-08-31T06:48:04.692Z,50.17
2018-08-31T06:50:33.255Z,50.43
2018-08-31T06:53:01.839Z,50.22
2018-08-31T06:55:30.395Z,50.89
2018-08-31T06:57:58.971Z,50.83
2018-08-31T07:00:27.648Z,50.55
2018-08-31T07:02:56.185Z,50.19
2018-08-31T07:05:24.760Z,50.43
2018-08-31T07:07:53.555Z,50.10
2018-08-31T07:10:22.123Z,50.12
2018-08-31T07:12:50.700Z,50.39
2018-08-31T07:15:19.695Z,50.49
2018-08-31T07:17:48.275Z,50.58
2018-08-31T07:20:16.864Z,51.01
2018-08-31T07:22:45.813Z,51.10
2018-08-31T07:25:14.484Z,50.82
2018-08-31T07:27:43.078Z,50.83
2018-08-31T07:30:12.063Z,50.25
2018-08-31T07:32:40.633Z,50.02
2018-08-31T07:35:09.224Z,49.81
2018-08-31T07:37:37.820Z,49.02
2018-08-31T07:40:06.819Z,49.69
2018-08-31T07:42:35.404Z,49.17
2018-08-31T07:45:04.232Z,49.48
2018-08-31T07:47:32.796Z,49.20
2018-08-31T07:50:01.359Z,49.50
2018-08-31T07:52:30.024Z,49.39
2018-08-31T07:54:58.657Z,49.43
2018-08-31T07:57:27.227Z,49.29
2018-08-31T07:59:55.807Z,49.49
2018-08-31T08:02:24.359Z,49.46
2018-08-31T08:04:52.920Z,49.30
2018-08-31T08:07:21.673Z,49.22
2018-08-31T08:09:50.195Z,49.55
2018-08-31T08:12:18.755Z,49.31
2018-08-31T08:14:47.831Z,49.02
2018-08-31T08:17:16.303Z,48.94
2018-08-31T08:19:44.925Z,49.22
2018-08-31T08:22:14.088Z,49.29
2018-08-31T08:24:42.668Z,49.30
2018-08-31T08:27:11.254Z,48.95
2018-08-31T08:29:39.855Z,49.12
2018-08-31T08:32:08.460Z,49.50
2018-08-31T08:34:37.036Z,49.37
2018-08-31T08:37:05.831Z,48.97
2018-08-31T08:39:34.459Z,48.78
2018-08-31T08:42:03.111Z,48.88
2018-08-31T08:44:31.862Z,48.44
2018-08-31T08:47:00.515Z,48.43
2018-08-31T08:49:29.100Z,47.79
2018-08-31T08:51:57.713Z,47.46
2018-08-31T08:54:26.283Z,47.56
2018-08-31T08:56:55.156Z,46.99
2018-08-31T08:59:24.173Z,48.09
2018-08-31T09:01:52.746Z,47.75
2018-08-31T09:04:21.309Z,47.82
2018-08-31T09:06:49.907Z,47.82
2018-08-31T09:09:18.475Z,47.55
2018-08-31T09:11:47.053Z,47.77
2018-08-31T09:14:15.640Z,47.83
2018-08-31T09:16:44.203Z,47.47
2018-08-31T09:19:12.775Z,47.36
2018-08-31T09:21:41.488Z,47.65
2018-08-31T09:24:10.079Z,47.64
2018-08-31T09:26:38.648Z,47.12
2018-08-31T09:29:07.320Z,47.28
2018-08-31T09:31:35.904Z,47.23
2018-08-31T09:34:04.468Z,47.26
2018-08-31T09:36:33.052Z,47.31
2018-08-31T09:39:01.596Z,46.84
2018-08-31T09:41:30.211Z,46.97
2018-08-31T09:43:59.177Z,46.67
2018-08-31T09:46:27.675Z,46.66
2018-08-31T09:48:56.256Z,46.61
2018-08-31T09:51:24.932Z,46.68
2018-08-31T09:53:53.529Z,46.38
2018-08-31T09:56:22.094Z,46.81
2018-08-31T09:58:50.824Z,46.79
2018-08-31T10:01:24.607Z,47.01
2018-08-31T10:03:53.318Z,46.92
2018-08-31T10:06:21.860Z,46.81
2018-08-31T10:08:50.415Z,46.76
2018-08-31T10:11:19.359Z,47.71
2018-08-31T10:13:47.912Z,47.75
2018-08-31T10:16:16.542Z,47.39
2018-08-31T10:18:45.169Z,47.98
2018-08-31T10:21:13.715Z,47.88
2018-08-31T10:23:42.287Z,49.49
2018-08-31T10:26:11.195Z,49.47
2018-08-31T10:28:40.035Z,50.66
2018-08-31T10:31:08.599Z,51.39
2018-08-31T10:33:37.544Z,51.72
2018-08-31T10:36:06.639Z,52.75
2018-08-31T10:38:35.180Z,52.39
2018-08-31T10:41:04.112Z,52.72
2018-08-31T10:43:32.697Z,53.19
2018-08-31T10:46:01.255Z,53.84
2018-08-31T10:48:29.851Z,53.98
2018-08-31T10:50:58.408Z,54.65
2018-08-31T10:53:26.967Z,55.21
2018-08-31T10:55:55.572Z,55.56
2018-08-31T10:58:24.127Z,55.64
2018-08-31T11:00:52.755Z,56.37
2018-08-31T11:03:21.563Z,56.81
2018-08-31T11:05:50.112Z,56.49
2018-08-31T11:08:18.727Z,56.59
2018-08-31T11:10:47.411Z,57.80
2018-08-31T11:13:15.960Z,58.54
2018-08-31T11:15:44.579Z,58.97
2018-08-31T11:18:13.190Z,59.91
2018-08-31T11:20:41.767Z,59.72
2018-08-31T11:23:10.355Z,60.06
2018-08-31T11:25:38.984Z,60.34
2018-08-31T11:28:07.603Z,60.90
2018-08-31T11:30:36.181Z,61.41
2018-08-31T11:33:05.038Z,60.88
2018-08-31T11:35:33.615Z,60.31
2018-08-31T11:38:02.191Z,61.09
2018-08-31T11:40:30.912Z,61.02
2018-08-31T11:42:59.512Z,60.91
2018-08-31T11:45:28.114Z,60.72
2018-08-31T11:47:56.723Z,60.59
2018-08-31T11:50:25.295Z,60.53
2018-08-31T11:52:53.855Z,60.79
2018-08-31T11:55:22.865Z,60.71
2018-08-31T11:57:51.365Z,60.94
2018-08-31T12:00:20.043Z,61.41
2018-08-31T12:02:48.636Z,61.54
2018-08-31T12:05:17.200Z,61.31
2018-08-31T12:07:45.771Z,61.51
2018-08-31T12:10:14.468Z,61.72
2018-08-31T12:12:43.036Z,61.93
2018-08-31T12:15:11.605Z,61.85
2018-08-31T12:17:40.287Z,62.65
2018-08-31T12:20:09.296Z,62.15
2018-08-31T12:22:37.960Z,62.77
2018-08-31T12:25:08.938Z,62.25
2018-08-31T12:27:38.799Z,62.30
2018-08-31T12:30:08.136Z,62.51
2018-08-31T12:32:37.276Z,62.83
2018-08-31T12:35:06.349Z,62.95
2018-08-31T12:37:35.503Z,62.54
2018-08-31T12:40:04.604Z,62.70
2018-08-31T12:42:33.363Z,63.06
2018-08-31T12:45:02.351Z,62.50
2018-08-31T12:47:30.926Z,62.44
2018-08-31T12:50:00.379Z,62.77
2018-08-31T12:52:29.143Z,62.87
2018-08-31T12:54:57.746Z,63.13
2018-08-31T12:57:26.423Z,62.35
2018-08-31T12:59:59.635Z,62.09
2018-08-31T13:02:29.575Z,61.70
2018-08-31T13:04:58.140Z,61.78
2018-08-31T13:07:27.175Z,61.87
2018-08-31T13:12:34.100Z,61.90
2018-08-31T13:15:02.971Z,62.72
2018-08-31T13:17:31.663Z,62.73
2018-08-31T13:20:00.506Z,62.40
2018-08-31T13:22:29.411Z,62.08
2018-08-31T13:24:58.041Z,62.51
2018-08-31T13:27:26.671Z,62.99
2018-08-31T13:29:55.312Z,62.74
2018-08-31T13:32:23.931Z,62.83
2018-08-31T13:34:52.978Z,62.15
2018-08-31T13:37:21.667Z,62.94
2018-08-31T13:39:50.242Z,62.32
2018-08-31T13:42:19.227Z,61.54
2018-08-31T13:44:48.180Z,61.46
2018-08-31T13:47:19.993Z,61.92
2018-08-31T13:49:49.088Z,61.56
2018-08-31T13:52:17.672Z,62.06
2018-08-31T13:54:46.651Z,61.41
2018-08-31T13:57:15.241Z,60.89
2018-08-31T13:59:44.164Z,59.87
2018-08-31T14:02:12.895Z,60.46
2018-08-31T14:04:41.472Z,60.49
2018-08-31T14:07:10.108Z,60.54
2018-08-31T14:09:38.915Z,60.62
2018-08-31T14:12:07.600Z,61.03
2018-08-31T14:14:36.233Z,60.66
2018-08-31T14:17:05.240Z,60.96
2018-08-31T14:19:33.955Z,61.57
2018-08-31T14:22:02.520Z,61.33
2018-08-31T14:24:31.208Z,60.67
2018-08-31T14:26:59.777Z,60.13
2018-08-31T14:29:28.424Z,60.81
2018-08-31T14:31:57.069Z,60.56
2018-08-31T14:34:25.623Z,59.98
2018-08-31T14:36:54.195Z,59.57
2018-08-31T14:39:22.793Z,59.27
2018-08-31T14:41:51.348Z,58.92
2018-08-31T14:44:20.601Z,58.52
2018-08-31T14:46:49.302Z,58.63
2018-08-31T14:49:17.868Z,58.53
2018-08-31T14:51:46.460Z,57.73
2018-08-31T14:54:15.059Z,57.81
2018-08-31T14:56:43.631Z,57.70
2018-08-31T14:59:12.290Z,57.10
2018-08-31T15:01:41.856Z,57.61
2018-08-31T15:04:10.432Z,57.44
2018-08-31T15:06:38.996Z,57.48
2018-08-31T15:09:09.564Z,57.54
2018-08-31T15:11:38.127Z,57.52
2018-08-31T15:14:06.695Z,57.72
2018-08-31T15:16:35.407Z,58.30
2018-08-31T15:19:03.984Z,57.27
2018-08-31T15:21:32.543Z,57.71
2018-08-31T15:24:01.260Z,56.95
2018-08-31T15:26:29.813Z,56.99
2018-08-31T15:28:58.361Z,57.50
2018-08-31T15:31:27.393Z,57.07
2018-08-31T15:33:55.843Z,57.08
2018-08-31T15:36:24.400Z,57.18
2018-08-31T15:38:53.076Z,57.48
2018-08-31T15:41:21.647Z,57.45
2018-08-31T15:43:50.210Z,57.07
2018-08-31T15:46:18.896Z,57.02
2018-08-31T15:48:47.460Z,57.06
2018-08-31T15:51:16.020Z,56.10
2018-08-31T15:53:45.283Z,56.05
2018-08-31T15:56:13.873Z,55.47
2018-08-31T15:58:42.447Z,57.15
2018-08-31T16:01:11.035Z,57.82
2018-08-31T16:03:39.601Z,58.15
2018-08-31T16:06:08.478Z,58.71
2018-08-31T16:08:37.148Z,59.30
2018-08-31T16:11:05.748Z,59.46
2018-08-31T16:13:34.299Z,59.43
2018-08-31T16:16:02.974Z,59.27
2018-08-31T16:18:31.844Z,59.04
2018-08-31T16:21:01.800Z,59.25
2018-08-31T16:23:31.713Z,58.51
2018-08-31T16:26:00.298Z,58.50
2018-08-31T16:28:28.863Z,58.56
2018-08-31T16:30:59.607Z,58.67
2018-08-31T16:33:28.210Z,58.67
2018-08-31T16:35:56.791Z,57.76
2018-08-31T16:38:25.467Z,57.88
2018-08-31T16:40:54.071Z,57.05
2018-08-31T16:43:23.039Z,56.97
2018-08-31T16:45:51.720Z,55.44
2018-08-31T16:48:20.312Z,54.89
2018-08-31T16:50:48.875Z,54.75
2018-08-31T16:53:17.695Z,54.43
2018-08-31T16:55:46.273Z,55.38
2018-08-31T16:58:14.839Z,55.37
2018-08-31T17:00:43.545Z,55.67
2018-08-31T17:03:12.207Z,55.51
2018-08-31T17:05:40.760Z,55.49
2018-08-31T17:08:09.640Z,56.31
2018-08-31T17:10:38.675Z,56.73
2018-08-31T17:13:07.251Z,56.84
2018-08-31T17:15:36.171Z,56.53
2018-08-31T17:18:04.794Z,55.85
2018-08-31T17:20:33.344Z,55.43
2018-08-31T17:23:02.264Z,55.58
2018-08-31T17:25:30.987Z,55.20
2018-08-31T17:28:05.011Z,55.69
2018-08-31T17:30:33.607Z,56.73
2018-08-31T17:33:07.660Z,57.06
2018-08-31T17:35:41.425Z,57.18
2018-08-31T17:38:10.992Z,57.60
2018-08-31T17:40:39.558Z,58.46
2018-08-31T17:43:08.159Z,58.71
2018-08-31T17:45:37.027Z,58.74
2018-08-31T17:48:05.708Z,59.16
2018-08-31T17:50:34.291Z,59.69
2018-08-31T17:53:03.279Z,60.43
2018-08-31T17:55:31.830Z,60.30
2018-08-31T17:58:00.391Z,61.34
2018-08-31T18:00:29.052Z,61.13
2018-08-31T18:02:57.636Z,61.23
2018-08-31T18:05:26.227Z,61.42
2018-08-31T18:07:55.208Z,61.91
2018-08-31T18:10:23.939Z,61.61
2018-08-31T18:12:52.511Z,61.69
2018-08-31T18:15:21.814Z,61.48
2018-08-31T18:17:50.340Z,61.60
2018-08-31T18:20:18.899Z,62.13
2018-08-31T18:22:48.567Z,62.01
2018-08-31T18:25:17.158Z,62.06
2018-08-31T18:27:45.710Z,62.22
2018-08-31T18:30:14.381Z,62.32
2018-08-31T18:32:42.935Z,62.56
2018-08-31T18:35:11.856Z,62.23
2018-08-31T18:37:46.375Z,62.63
2018-08-31T18:40:14.939Z,62.13
2018-08-31T18:42:43.511Z,62.46
2018-08-31T18:45:12.107Z,62.69
2018-08-31T18:47:40.722Z,62.47
2018-08-31T18:50:09.369Z,62.84
2018-08-31T18:52:38.199Z,63.46
2018-08-31T18:55:06.739Z,63.33
2018-08-31T18:57:35.311Z,63.09
2018-08-31T19:00:03.952Z,63.32
2018-08-31T19:02:32.516Z,63.38
2018-08-31T19:05:01.093Z,63.40
2018-08-31T19:07:29.792Z,63.51
2018-08-31T19:10:03.744Z,63.29
2018-08-31T19:12:32.644Z,63.56
2018-08-31T19:15:01.195Z,63.30
2018-08-31T19:17:29.832Z,63.17
2018-08-31T19:19:58.935Z,63.11
2018-08-31T19:22:27.507Z,62.93
2018-08-31T19:24:56.113Z,63.10
2018-08-31T19:27:25.060Z,63.50
2018-08-31T19:29:53.635Z,63.55
2018-08-31T19:32:22.389Z,63.70
2018-08-31T19:34:51.327Z,63.26
2018-08-31T19:37:19.943Z,63.56
2018-08-31T19:39:48.508Z,63.58
2018-08-31T19:42:17.192Z,63.28
2018-08-31T19:44:45.779Z,62.88
2018-08-31T19:47:14.357Z,62.82
2018-08-31T19:49:43.037Z,63.24
2018-08-31T19:52:11.607Z,62.67
2018-08-31T19:54:40.196Z,62.99
2018-08-31T19:57:09.095Z,62.90
2018-08-31T19:59:37.655Z,62.75
2018-08-31T20:02:07.013Z,62.43
2018-08-31T20:04:35.756Z,62.71
2018-08-31T20:07:04.318Z,62.64
2018-08-31T20:09:32.979Z,62.38
2018-08-31T20:12:01.760Z,62.53
2018-08-31T20:14:30.438Z,63.05
2018-08-31T20:16:59.020Z,62.99
2018-08-31T20:19:27.962Z,63.35
2018-08-31T20:21:56.841Z,63.13
2018-08-31T20:24:25.642Z,62.92
2018-08-31T20:26:54.355Z,62.95
2018-08-31T20:29:22.972Z,63.56
2018-08-31T20:31:51.687Z,63.08
2018-08-31T20:34:20.292Z,63.62
2018-08-31T20:36:48.851Z,64.29
2018-08-31T20:39:17.440Z,64.07
2018-08-31T20:41:46.168Z,64.64
2018-08-31T20:44:14.799Z,64.39
2018-08-31T20:46:43.358Z,64.15
2018-08-31T20:49:11.948Z,64.02
2018-08-31T20:51:40.571Z,64.21
2018-08-31T20:54:09.141Z,64.33
2018-08-31T20:56:37.838Z,64.09
2018-08-31T20:59:06.554Z,63.72
2018-08-31T21:01:35.467Z,63.74
2018-08-31T21:04:04.140Z,64.02
2018-08-31T21:06:32.935Z,64.25
2018-08-31T21:09:01.695Z,64.71
2018-08-31T21:11:30.720Z,65.06
2018-08-31T21:13:59.283Z,64.99
2018-08-31T21:16:27.855Z,64.73
2018-08-31T21:18:56.641Z,64.65
2018-08-31T21:21:25.215Z,65.07
2018-08-31T21:23:53.800Z,65.30
2018-08-31T21:26:22.655Z,65.23
2018-08-31T21:28:51.749Z,65.16
2018-08-31T21:31:20.348Z,65.11
2018-08-31T21:33:50.176Z,64.91
2018-08-31T21:36:18.739Z,65.19
2018-08-31T21:38:47.347Z,64.77
2018-08-31T21:41:15.943Z,64.71
2018-08-31T21:43:44.611Z,64.50
2018-08-31T21:46:14.609Z,64.06
2018-08-31T21:48:43.289Z,64.06
2018-08-31T21:51:12.008Z,64.25
2018-08-31T21:53:40.669Z,63.95
2018-08-31T21:56:09.339Z,64.21
2018-08-31T21:58:37.907Z,64.36
2018-08-31T22:01:11.787Z,64.05
2018-08-31T22:03:40.667Z,63.95
2018-08-31T22:06:09.416Z,64.04
2018-08-31T22:08:40.097Z,64.33
2018-08-31T22:11:08.827Z,64.77
2018-08-31T22:13:37.759Z,65.06
2018-08-31T22:16:06.851Z,65.37
2018-08-31T22:18:35.483Z,65.12
2018-08-31T22:21:04.539Z,65.20
2018-08-31T22:23:33.207Z,65.40
2018-08-31T22:26:01.852Z,65.43
2018-08-31T22:28:30.439Z,65.35
2018-08-31T22:30:59.083Z,65.59
2018-08-31T22:33:27.700Z,65.96
2018-08-31T22:35:56.275Z,66.35
2018-08-31T22:38:24.872Z,65.88
2018-08-31T22:40:53.599Z,66.75
2018-08-31T22:43:53.228Z,66.55
2018-08-31T22:46:22.879Z,66.33
2018-08-31T22:48:52.184Z,66.71
2018-08-31T22:51:22.251Z,67.11
2018-08-31T22:53:51.192Z,67.02
2018-08-31T22:56:19.783Z,66.95
2018-08-31T22:58:48.447Z,66.98
2018-08-31T23:01:17.027Z,66.74
2018-08-31T23:03:45.622Z,66.81
2018-08-31T23:06:14.299Z,67.20
2018-08-31T23:08:42.924Z,67.34
2018-08-31T23:11:12.567Z,67.23
2018-08-31T23:13:43.043Z,67.66
2018-08-31T23:16:11.632Z,67.63
2018-08-31T23:18:40.644Z,67.64
2018-08-31T23:21:10.171Z,67.46
2018-08-31T23:23:43.951Z,67.70
2018-08-31T23:26:12.594Z,67.68
2018-08-31T23:28:41.150Z,67.99
2018-08-31T23:31:09.732Z,68.03
2018-08-31T23:33:38.317Z,67.75
2018-08-31T23:36:06.886Z,68.00
2018-08-31T23:38:35.492Z,68.30
2018-08-31T23:41:04.235Z,67.79
2018-08-31T23:43:32.830Z,67.89
2018-08-31T23:46:01.424Z,67.86
2018-08-31T23:48:30.040Z,67.80
2018-08-31T23:50:58.623Z,67.80
2018-08-31T23:53:27.236Z,67.70
2018-08-31T23:55:55.840Z,67.96
2018-08-31T23:58:24.411Z,68.03
